Maldives Meteorological Service

METAR

Station
VRMM
METAR VRMM 181200Z 03006KT 7000 FEW018TCU SCT280 30/25 Q1009 NOSIG=
VRMH
METAR VRMH 181200Z 36005KT 9999 FEW018 29/24 Q1009=
VRMK
METAR VRMK 181200Z 31003KT 9999 FEW018TCU SCT130 BKN270 30/25 Q1009=
VRMT
METAR VRMT 181200Z 23003KT 9999 FEW018TCU BKN260 29/25 Q1008=
VRMG
METAR VRMG 181200Z 00000KT 9999 FEW018TCU BKN120 29/25 Q1008 NOSIG=
Last Updated : 2019-02-18 17:00:01

SPECI

Station
VRMM
VRMH
VRMK
VRMT
VRMG
Last Updated : 2019-02-18 17:00:01